createdAt,value
2022-10-16T00:01:23.906Z,100593.03
2022-10-16T00:03:28.072Z,100594.13
2022-10-16T00:05:34.036Z,100593.28
2022-10-16T00:07:35.540Z,100601.31
2022-10-16T00:09:37.094Z,100601.72
2022-10-16T00:11:40.458Z,100606.22
2022-10-16T00:13:43.918Z,100603.53
2022-10-16T00:15:45.385Z,100606.09
2022-10-16T00:17:46.883Z,100611.81
2022-10-16T00:19:48.565Z,100612.09
2022-10-16T00:21:51.408Z,100606.88
2022-10-16T00:23:54.015Z,100593.81
2022-10-16T00:25:56.423Z,100602.28
2022-10-16T00:27:57.897Z,100609.22
2022-10-16T00:32:06.002Z,100621.19
2022-10-16T00:34:07.487Z,100618.53
2022-10-16T00:36:11.836Z,100629.38
2022-10-16T00:38:15.123Z,100626.56
2022-10-16T00:40:16.788Z,100626.56
2022-10-16T00:42:19.772Z,100622.06
2022-10-16T00:44:44.690Z,100614.88
2022-10-16T00:46:46.176Z,100622.91
2022-10-16T00:48:53.066Z,100617.09
2022-10-16T00:50:54.824Z,100619.72
2022-10-16T00:52:57.208Z,100615.78
2022-10-16T00:55:02.338Z,100624.06
2022-10-16T00:57:06.577Z,100630.19
2022-10-16T00:59:14.943Z,100626.75
2022-10-16T01:01:16.536Z,100636.28
2022-10-16T01:03:27.992Z,100623.59
2022-10-16T01:05:38.610Z,100627.72
2022-10-16T01:07:48.550Z,100623.56
2022-10-16T01:10:03.367Z,100631.38
2022-10-16T01:12:10.869Z,100622.94
2022-10-16T01:14:20.760Z,100625.22
2022-10-16T01:16:30.537Z,100626.94
2022-10-16T01:18:38.408Z,100629.09
2022-10-16T01:20:45.081Z,100640.81
2022-10-16T01:22:59.183Z,100644.78
2022-10-16T01:25:09.980Z,100640.63
2022-10-16T01:27:15.734Z,100644.38
2022-10-16T01:29:22.069Z,100655.13
2022-10-16T01:31:26.784Z,100655.53
2022-10-16T01:33:35.225Z,100657.16
2022-10-16T01:35:42.695Z,100660.88
2022-10-16T01:37:52.132Z,100663.56
2022-10-16T01:39:59.375Z,100667.22
2022-10-16T01:42:07.692Z,100668.19
2022-10-16T01:44:16.201Z,100671.19
2022-10-16T01:46:21.839Z,100668.09
2022-10-16T01:48:24.316Z,100668.09
2022-10-16T01:50:27.985Z,100666.06
2022-10-16T01:52:30.532Z,100664.34
2022-10-16T01:54:35.172Z,100667.88
2022-10-16T01:56:39.712Z,100674.00
2022-10-16T01:58:46.112Z,100674.50
2022-10-16T02:00:49.264Z,100676.47
2022-10-16T02:02:53.959Z,100675.25
2022-10-16T02:04:59.198Z,100682.16
2022-10-16T02:07:01.032Z,100685.91
2022-10-16T02:09:02.582Z,100680.44
2022-10-16T02:11:04.248Z,100685.56
2022-10-16T02:13:09.698Z,100682.34
2022-10-16T02:15:11.231Z,100699.72
2022-10-16T02:17:17.301Z,100705.09
2022-10-16T02:19:21.639Z,100694.47
2022-10-16T02:21:27.109Z,100698.00
2022-10-16T02:23:36.281Z,100703.03
2022-10-16T02:25:42.750Z,100704.88
2022-10-16T02:27:51.965Z,100700.13
2022-10-16T02:29:56.850Z,100683.41
2022-10-16T02:32:03.383Z,100689.28
2022-10-16T02:34:08.433Z,100692.94
2022-10-16T02:36:10.568Z,100698.66
2022-10-16T02:38:13.390Z,100687.50
2022-10-16T02:40:18.300Z,100701.53
2022-10-16T02:42:21.911Z,100703.38
2022-10-16T02:44:23.466Z,100701.66
2022-10-16T02:46:25.019Z,100700.47
2022-10-16T02:48:26.557Z,100693.91
2022-10-16T02:50:29.605Z,100699.28
2022-10-16T02:52:31.124Z,100704.75
2022-10-16T02:54:32.934Z,100702.28
2022-10-16T02:56:34.408Z,100704.88
2022-10-16T02:58:35.922Z,100699.72
2022-10-16T03:00:37.530Z,100704.88
2022-10-16T03:02:39.162Z,100698.66
2022-10-16T03:04:40.671Z,100697.78
2022-10-16T03:06:43.605Z,100712.91
2022-10-16T03:08:45.152Z,100711.53
2022-10-16T03:10:46.740Z,100719.69
2022-10-16T03:12:48.363Z,100720.75
2022-10-16T03:14:52.313Z,100724.72
2022-10-16T03:16:53.796Z,100734.25
2022-10-16T03:18:55.289Z,100736.19
2022-10-16T03:20:56.819Z,100722.03
2022-10-16T03:22:59.683Z,100710.34
2022-10-16T03:25:01.321Z,100711.09
2022-10-16T03:27:03.073Z,100712.16
2022-10-16T03:29:05.040Z,100727.38
2022-10-16T03:31:06.735Z,100729.84
2022-10-16T03:33:08.275Z,100743.25
2022-10-16T03:35:09.860Z,100741.75
2022-10-16T03:37:11.589Z,100748.31
2022-10-16T03:39:14.535Z,100744.97
2022-10-16T03:41:16.073Z,100748.31
2022-10-16T03:43:17.600Z,100755.72
2022-10-16T03:45:19.122Z,100764.19
2022-10-16T03:47:20.634Z,100759.16
2022-10-16T03:49:22.195Z,100757.66
2022-10-16T03:51:23.772Z,100762.03
2022-10-16T03:53:25.909Z,100752.28
2022-10-16T03:55:28.944Z,100765.47
2022-10-16T03:57:30.486Z,100762.25
2022-10-16T03:59:32.032Z,100773.94
2022-10-16T04:01:34.078Z,100776.09
2022-10-16T04:03:35.696Z,100784.13
2022-10-16T04:05:37.200Z,100775.22
2022-10-16T04:07:38.743Z,100786.81
2022-10-16T04:09:40.340Z,100791.94
2022-10-16T04:11:43.473Z,100797.31
2022-10-16T04:13:45.200Z,100787.56
2022-10-16T04:15:47.053Z,100777.59
2022-10-16T04:17:48.650Z,100790.44
2022-10-16T04:19:50.210Z,100789.47
2022-10-16T04:21:51.719Z,100772.13
2022-10-16T04:23:53.309Z,100773.72
2022-10-16T04:25:54.875Z,100777.81
2022-10-16T04:27:57.778Z,100778.00
2022-10-16T04:29:59.312Z,100777.03
2022-10-16T04:32:00.998Z,100769.22
2022-10-16T04:34:02.483Z,100768.25
2022-10-16T04:36:05.069Z,100776.28
2022-10-16T04:38:06.609Z,100754.88
2022-10-16T04:40:08.733Z,100757.84
2022-10-16T04:42:10.477Z,100756.97
2022-10-16T04:44:13.434Z,100754.22
2022-10-16T04:46:14.948Z,100752.03
2022-10-16T04:48:16.425Z,100757.41
2022-10-16T04:50:17.986Z,100772.63
2022-10-16T04:52:19.468Z,100772.72
2022-10-16T04:54:20.995Z,100777.13
2022-10-16T04:56:22.520Z,100773.56
2022-10-16T04:58:24.224Z,100766.63
2022-10-16T05:00:27.366Z,100768.09
2022-10-16T05:02:28.969Z,100775.19
2022-10-16T05:04:30.508Z,100785.03
2022-10-16T05:06:32.056Z,100799.59
2022-10-16T05:08:34.052Z,100798.94
2022-10-16T05:10:35.539Z,100797.63
2022-10-16T05:12:37.030Z,100802.53
2022-10-16T05:14:38.573Z,100800.19
2022-10-16T05:16:41.447Z,100807.09
2022-10-16T05:18:42.953Z,100808.13
2022-10-16T05:20:44.550Z,100803.81
2022-10-16T05:22:46.119Z,100819.03
2022-10-16T05:24:48.287Z,100819.88
2022-10-16T05:26:50.558Z,100812.28
2022-10-16T05:28:52.086Z,100800.81
2022-10-16T05:30:53.618Z,100805.31
2022-10-16T05:32:56.627Z,100806.72
2022-10-16T05:34:58.188Z,100805.31
2022-10-16T05:36:59.774Z,100802.19
2022-10-16T05:39:01.339Z,100804.25
2022-10-16T05:41:03.597Z,100798.53
2022-10-16T05:43:05.140Z,100802.72
2022-10-16T05:45:08.125Z,100797.16
2022-10-16T05:47:09.650Z,100808.53
2022-10-16T05:49:12.470Z,100818.38
2022-10-16T05:51:15.416Z,100820.56
2022-10-16T05:53:16.989Z,100823.69
2022-10-16T05:55:18.787Z,100813.75
2022-10-16T05:57:20.323Z,100816.72
2022-10-16T05:59:21.806Z,100821.22
2022-10-16T06:01:23.326Z,100821.03
2022-10-16T06:03:25.304Z,100817.28
2022-10-16T06:05:28.516Z,100816.53
2022-10-16T06:07:30.021Z,100822.84
2022-10-16T06:09:31.643Z,100828.84
2022-10-16T06:11:34.159Z,100823.19
2022-10-16T06:13:36.060Z,100842.91
2022-10-16T06:15:38.632Z,100839.09
2022-10-16T06:17:40.124Z,100831.72
2022-10-16T06:19:42.390Z,100828.59
2022-10-16T06:21:45.368Z,100830.97
2022-10-16T06:23:47.761Z,100834.19
2022-10-16T06:25:49.391Z,100837.41
2022-10-16T06:27:51.032Z,100836.75
2022-10-16T06:29:52.515Z,100829.78
2022-10-16T06:31:53.987Z,100831.72
2022-10-16T06:33:55.947Z,100845.13
2022-10-16T06:36:01.493Z,100850.94
2022-10-16T06:38:04.413Z,100849.00
2022-10-16T06:40:06.974Z,100869.59
2022-10-16T06:42:08.475Z,100858.22
2022-10-16T06:44:10.040Z,100871.75
2022-10-16T06:46:12.907Z,100882.38
2022-10-16T06:48:14.376Z,100873.69
2022-10-16T06:50:15.951Z,100874.53
2022-10-16T06:52:17.490Z,100873.25
2022-10-16T06:54:20.396Z,100866.16
2022-10-16T06:56:23.658Z,100865.09
2022-10-16T06:58:25.187Z,100882.88
2022-10-16T07:00:26.661Z,100873.56
2022-10-16T07:02:28.354Z,100874.09
2022-10-16T07:04:30.225Z,100878.06
2022-10-16T07:06:35.149Z,100876.13
2022-10-16T07:08:38.787Z,100879.53
2022-10-16T07:10:41.820Z,100890.34
2022-10-16T07:12:43.515Z,100897.66
2022-10-16T07:14:45.144Z,100909.63
2022-10-16T07:16:47.426Z,100910.53
2022-10-16T07:18:48.893Z,100910.38
2022-10-16T07:20:50.373Z,100905.03
2022-10-16T07:22:51.906Z,100891.19
2022-10-16T07:24:55.622Z,100900.28
2022-10-16T07:26:58.451Z,100897.19
2022-10-16T07:29:00.534Z,100912.16
2022-10-16T07:31:02.922Z,100909.03
2022-10-16T07:33:04.672Z,100916.88
2022-10-16T07:35:07.498Z,100900.47
2022-10-16T07:37:09.073Z,100893.88
2022-10-16T07:39:10.603Z,100900.97
2022-10-16T07:41:13.982Z,100909.03
2022-10-16T07:43:16.816Z,100909.53
2022-10-16T07:45:18.277Z,100910.88
2022-10-16T07:47:19.870Z,100914.41
2022-10-16T07:49:21.381Z,100907.94
2022-10-16T07:51:24.852Z,100919.00
2022-10-16T07:53:27.155Z,100916.13
2022-10-16T07:55:28.667Z,100918.28
2022-10-16T07:57:30.173Z,100915.56
2022-10-16T07:59:33.056Z,100907.75
2022-10-16T08:01:34.602Z,100911.59
2022-10-16T08:03:36.678Z,100923.63
2022-10-16T08:05:38.240Z,100931.72
2022-10-16T08:07:39.875Z,100936.38
2022-10-16T08:09:41.386Z,100925.63
2022-10-16T08:11:44.445Z,100931.50
2022-10-16T08:13:46.036Z,100946.16
2022-10-16T08:15:48.955Z,100955.56
2022-10-16T08:17:58.766Z,100950.19
2022-10-16T08:20:00.604Z,100947.84
2022-10-16T08:22:02.625Z,100956.81
2022-10-16T08:24:04.460Z,100950.13
2022-10-16T08:26:07.921Z,100940.09
2022-10-16T08:28:11.611Z,100946.47
2022-10-16T08:30:14.043Z,100942.81
2022-10-16T08:32:17.118Z,100939.41
2022-10-16T08:34:18.711Z,100928.63
2022-10-16T08:36:20.733Z,100949.31
2022-10-16T08:38:22.640Z,100954.09
2022-10-16T08:40:26.542Z,100954.34
2022-10-16T08:42:44.267Z,100948.72
2022-10-16T08:45:07.822Z,100944.78
2022-10-16T08:47:18.390Z,100948.47
2022-10-16T08:49:21.630Z,100944.06
2022-10-16T08:51:25.927Z,100951.41
2022-10-16T08:53:37.390Z,100951.28
2022-10-16T08:55:43.532Z,100958.53
2022-10-16T08:57:47.385Z,100955.56
2022-10-16T08:59:48.965Z,100953.59
2022-10-16T09:01:52.699Z,100963.41
2022-10-16T09:04:08.417Z,100971.97
2022-10-16T09:06:30.727Z,100969.88
2022-10-16T09:08:43.741Z,100971.97
2022-10-16T09:10:55.285Z,100971.97
2022-10-16T09:13:03.585Z,100982.69
2022-10-16T09:15:17.731Z,100985.81
2022-10-16T09:17:30.919Z,100996.09
2022-10-16T09:19:37.724Z,100996.88
2022-10-16T09:21:43.192Z,100986.72
2022-10-16T09:23:47.120Z,100988.97
2022-10-16T09:25:50.421Z,100991.19
2022-10-16T09:27:54.037Z,100988.59
2022-10-16T09:29:59.639Z,100983.94
2022-10-16T09:32:12.768Z,100982.75
2022-10-16T09:34:31.098Z,100985.06
2022-10-16T09:36:40.313Z,100986.19
2022-10-16T09:38:43.224Z,100986.44
2022-10-16T09:40:44.780Z,100992.44
2022-10-16T09:42:46.350Z,100995.75
2022-10-16T09:44:49.394Z,100996.97
2022-10-16T09:47:04.168Z,101010.03
2022-10-16T09:49:19.546Z,100999.34
2022-10-16T09:51:24.253Z,101005.22
2022-10-16T09:53:27.935Z,101009.75
2022-10-16T09:55:30.801Z,101010.50
2022-10-16T09:57:32.309Z,101015.53
2022-10-16T09:59:34.595Z,101012.13
2022-10-16T10:01:39.506Z,101014.06
2022-10-16T10:03:42.544Z,101020.44
2022-10-16T10:05:49.228Z,101027.19
2022-10-16T10:07:57.070Z,101029.97
2022-10-16T10:09:58.606Z,101035.84
2022-10-16T10:14:20.819Z,101045.25
2022-10-16T10:16:24.833Z,101038.78
2022-10-16T10:18:26.332Z,101038.91
2022-10-16T10:20:29.853Z,101035.59
2022-10-16T10:22:39.957Z,101026.41
2022-10-16T10:24:41.473Z,101041.22
2022-10-16T10:26:50.072Z,101042.44
2022-10-16T10:29:03.216Z,101038.50
2022-10-16T10:31:10.293Z,101033.13
2022-10-16T10:33:25.687Z,101039.97
2022-10-16T10:35:37.703Z,101034.78
2022-10-16T10:37:55.737Z,101041.38
2022-10-16T10:40:03.719Z,101051.00
2022-10-16T10:42:20.608Z,101046.22
2022-10-16T10:44:31.495Z,101037.78
2022-10-16T10:46:36.150Z,101049.69
2022-10-16T10:49:00.557Z,101059.97
2022-10-16T10:51:09.739Z,101051.22
2022-10-16T10:53:22.605Z,101044.38
2022-10-16T10:55:32.112Z,101055.28
2022-10-16T10:57:43.699Z,101061.56
2022-10-16T11:00:07.926Z,101054.56
2022-10-16T11:02:18.317Z,101050.47
2022-10-16T11:04:53.974Z,101060.47
2022-10-16T11:07:00.810Z,101041.44
2022-10-16T11:09:11.608Z,101053.03
2022-10-16T11:11:20.642Z,101063.59
2022-10-16T11:13:31.314Z,101055.75
2022-10-16T11:15:39.837Z,101053.75
2022-10-16T11:17:45.837Z,101060.88
2022-10-16T11:19:52.241Z,101061.59
2022-10-16T11:22:00.966Z,101062.75
2022-10-16T11:24:10.915Z,101058.81
2022-10-16T11:26:17.320Z,101056.13
2022-10-16T11:28:26.606Z,101056.56
2022-10-16T11:30:34.695Z,101053.81
2022-10-16T11:32:49.344Z,101052.22
2022-10-16T11:34:56.767Z,101046.34
2022-10-16T11:37:04.532Z,101056.91
2022-10-16T11:39:19.249Z,101061.59
2022-10-16T11:41:27.278Z,101057.16
2022-10-16T11:43:33.513Z,101061.25
2022-10-16T11:45:40.942Z,101063.22
2022-10-16T11:47:58.798Z,101060.25
2022-10-16T11:50:04.587Z,101067.09
2022-10-16T11:54:27.377Z,101056.34
2022-10-16T11:56:33.596Z,101062.25
2022-10-16T11:58:39.278Z,101055.13
2022-10-16T12:00:46.788Z,101060.94
2022-10-16T12:02:57.171Z,101063.03
2022-10-16T12:05:07.994Z,101062.78
2022-10-16T12:07:12.943Z,101062.81
2022-10-16T12:09:24.223Z,101072.69
2022-10-16T12:11:34.396Z,101074.22
2022-10-16T12:13:38.056Z,101081.28
2022-10-16T12:15:58.044Z,101092.19
2022-10-16T12:18:02.136Z,101079.59
2022-10-16T12:20:22.434Z,101088.22
2022-10-16T12:22:24.008Z,101082.97
2022-10-16T12:24:33.908Z,101088.50
2022-10-16T12:26:40.068Z,101079.16
2022-10-16T12:28:41.971Z,101089.88
2022-10-16T12:30:53.313Z,101086.53
2022-10-16T12:32:56.386Z,101086.53
2022-10-16T12:35:00.327Z,101093.84
2022-10-16T12:37:12.238Z,101099.16
2022-10-16T12:39:22.463Z,101096.47
2022-10-16T12:41:29.315Z,101091.41
2022-10-16T12:43:40.532Z,101095.00
2022-10-16T12:45:42.084Z,101103.50
2022-10-16T12:47:51.011Z,101090.72
2022-10-16T12:49:54.031Z,101109.88
2022-10-16T12:51:57.549Z,101106.84
2022-10-16T12:54:00.145Z,101100.59
2022-10-16T12:56:10.677Z,101094.75
2022-10-16T12:58:28.885Z,101103.09
2022-10-16T13:00:42.461Z,101108.25
2022-10-16T13:02:59.298Z,101109.81
2022-10-16T13:05:17.838Z,101121.00
2022-10-16T13:07:34.814Z,101113.16
2022-10-16T13:09:49.931Z,101119.44
2022-10-16T13:12:12.750Z,101118.81
2022-10-16T13:14:41.152Z,101113.84
2022-10-16T13:16:52.097Z,101131.28
2022-10-16T13:19:04.461Z,101127.34
2022-10-16T13:21:18.877Z,101133.88
2022-10-16T13:23:27.312Z,101140.13
2022-10-16T13:25:42.098Z,101140.84
2022-10-16T13:27:51.770Z,101138.88
2022-10-16T13:30:01.250Z,101143.78
2022-10-16T13:32:10.332Z,101144.13
2022-10-16T13:34:15.709Z,101153.91
2022-10-16T13:36:21.960Z,101152.28
2022-10-16T13:38:27.147Z,101154.97
2022-10-16T13:40:28.656Z,101147.91
2022-10-16T13:42:30.583Z,101149.69
2022-10-16T13:44:40.231Z,101154.50
2022-10-16T13:46:41.876Z,101154.09
2022-10-16T13:48:44.394Z,101149.41
2022-10-16T13:50:46.197Z,101151.00
2022-10-16T13:52:47.703Z,101145.97
2022-10-16T13:54:50.662Z,101148.97
2022-10-16T13:57:03.355Z,101154.94
2022-10-16T13:59:24.943Z,101167.63
2022-10-16T14:01:32.463Z,101160.63
2022-10-16T14:03:35.595Z,101166.44
2022-10-16T14:05:49.087Z,101165.63
2022-10-16T14:07:52.522Z,101162.47
2022-10-16T14:09:56.322Z,101161.03
2022-10-16T14:12:00.995Z,101161.13
2022-10-16T14:14:03.505Z,101169.28
2022-10-16T14:16:09.801Z,101166.25
2022-10-16T14:18:20.980Z,101171.53
2022-10-16T14:20:26.892Z,101177.44
2022-10-16T14:22:34.230Z,101172.31
2022-10-16T14:24:36.439Z,101177.13
2022-10-16T14:26:49.652Z,101180.94
2022-10-16T14:29:10.483Z,101183.31
2022-10-16T14:31:33.343Z,101181.72
2022-10-16T14:33:35.235Z,101175.47
2022-10-16T14:35:39.533Z,101176.66
2022-10-16T14:37:41.080Z,101184.03
2022-10-16T14:39:42.712Z,101177.06
2022-10-16T14:41:48.246Z,101171.66
2022-10-16T14:43:53.753Z,101174.88
2022-10-16T14:45:57.867Z,101176.47
2022-10-16T14:48:02.568Z,101177.44
2022-10-16T14:50:05.704Z,101180.88
2022-10-16T14:52:11.817Z,101187.13
2022-10-16T14:54:14.086Z,101186.66
2022-10-16T14:56:17.974Z,101188.66
2022-10-16T14:58:22.911Z,101187.06
2022-10-16T15:00:25.373Z,101187.69
2022-10-16T15:02:30.624Z,101188.78
2022-10-16T15:04:32.122Z,101191.63
2022-10-16T15:06:33.645Z,101199.25
2022-10-16T15:08:35.161Z,101197.53
2022-10-16T15:10:40.503Z,101205.16
2022-10-16T15:12:42.028Z,101201.50
2022-10-16T15:14:45.000Z,101200.03
2022-10-16T15:16:46.655Z,101204.19
2022-10-16T15:18:48.223Z,101209.84
2022-10-16T15:20:50.981Z,101212.41
2022-10-16T15:22:52.571Z,101229.47
2022-10-16T15:24:54.140Z,101218.94
2022-10-16T15:26:55.799Z,101225.34
2022-10-16T15:28:57.902Z,101226.81
2022-10-16T15:31:00.781Z,101224.63
2022-10-16T15:33:02.725Z,101217.75
2022-10-16T15:35:05.216Z,101238.13
2022-10-16T15:37:06.693Z,101237.28
2022-10-16T15:39:14.556Z,101242.78
2022-10-16T15:41:18.098Z,101248.97
2022-10-16T15:43:19.659Z,101249.34
2022-10-16T15:45:21.336Z,101249.09
2022-10-16T15:47:24.324Z,101254.22
2022-10-16T15:49:26.071Z,101243.94
2022-10-16T15:51:29.141Z,101266.00
2022-10-16T15:53:30.656Z,101264.66
2022-10-16T15:55:32.202Z,101277.03
2022-10-16T15:57:33.746Z,101275.34
2022-10-16T15:59:35.365Z,101280.25
2022-10-16T16:01:37.200Z,101281.81
2022-10-16T16:03:40.742Z,101275.44
2022-10-16T16:05:46.695Z,101281.63
2022-10-16T16:07:50.838Z,101285.50
2022-10-16T16:09:52.376Z,101287.41
2022-10-16T16:11:53.931Z,101282.06
2022-10-16T16:13:55.571Z,101288.97
2022-10-16T16:15:57.270Z,101288.44
2022-10-16T16:17:58.786Z,101299.28
2022-10-16T16:20:03.893Z,101300.41
2022-10-16T16:22:09.414Z,101299.25
2022-10-16T16:24:17.083Z,101300.09
2022-10-16T16:26:24.508Z,101314.97
2022-10-16T16:28:26.379Z,101311.09
2022-10-16T16:30:30.255Z,101309.81
2022-10-16T16:32:31.828Z,101317.25
2022-10-16T16:34:33.508Z,101313.94
2022-10-16T16:36:36.951Z,101321.75
2022-10-16T16:38:38.499Z,101323.78
2022-10-16T16:40:40.051Z,101318.84
2022-10-16T16:42:41.569Z,101328.09
2022-10-16T16:44:43.090Z,101334.06
2022-10-16T16:46:45.288Z,101337.06
2022-10-16T16:48:47.401Z,101343.50
2022-10-16T16:50:48.905Z,101344.13
2022-10-16T16:52:51.803Z,101349.28
2022-10-16T16:54:53.482Z,101352.47
2022-10-16T16:56:54.967Z,101366.22
2022-10-16T16:58:57.991Z,101371.88
2022-10-16T17:01:18.837Z,101373.06
2022-10-16T17:03:21.474Z,101376.91
2022-10-16T17:05:23.010Z,101385.25
2022-10-16T17:07:24.538Z,101372.34
2022-10-16T17:09:27.548Z,101383.75
2022-10-16T17:11:32.491Z,101384.81
2022-10-16T17:13:35.655Z,101385.19
2022-10-16T17:15:37.121Z,101391.63
2022-10-16T17:17:38.762Z,101394.56
2022-10-16T17:19:40.248Z,101390.63
2022-10-16T17:21:41.972Z,101405.78
2022-10-16T17:23:43.625Z,101401.66
2022-10-16T17:25:47.025Z,101401.38
2022-10-16T17:27:48.627Z,101407.72
2022-10-16T17:29:51.593Z,101420.06
2022-10-16T17:31:53.122Z,101413.38
2022-10-16T17:33:55.016Z,101428.50
2022-10-16T17:36:00.126Z,101428.03
2022-10-16T17:38:01.588Z,101435.41
2022-10-16T17:40:03.423Z,101432.63
2022-10-16T17:42:06.329Z,101444.91
2022-10-16T17:44:07.954Z,101447.66
2022-10-16T17:46:10.732Z,101442.31
2022-10-16T17:48:12.246Z,101444.59
2022-10-16T17:50:16.674Z,101445.66
2022-10-16T17:52:18.173Z,101444.31
2022-10-16T17:54:20.439Z,101443.06
2022-10-16T17:56:23.336Z,101439.53
2022-10-16T17:58:26.262Z,101436.53
2022-10-16T18:00:28.817Z,101441.28
2022-10-16T18:02:30.715Z,101432.25
2022-10-16T18:04:32.232Z,101437.81
2022-10-16T18:06:34.580Z,101440.06
2022-10-16T18:08:36.095Z,101445.44
2022-10-16T18:10:44.834Z,101445.97
2022-10-16T18:12:46.431Z,101455.16
2022-10-16T18:14:49.311Z,101453.56
2022-10-16T18:18:52.492Z,101464.47
2022-10-16T18:20:56.959Z,101462.94
2022-10-16T18:22:58.431Z,101474.50
2022-10-16T18:25:00.015Z,101469.25
2022-10-16T18:27:01.718Z,101473.28
2022-10-16T18:29:04.116Z,101479.38
2022-10-16T18:31:09.263Z,101467.78
2022-10-16T18:33:10.824Z,101475.00
2022-10-16T18:37:14.812Z,101482.28
2022-10-16T18:39:16.357Z,101490.75
2022-10-16T18:41:18.597Z,101474.53
2022-10-16T18:43:20.110Z,101490.25
2022-10-16T18:45:21.813Z,101493.09
2022-10-16T18:47:24.934Z,101504.44
2022-10-16T18:49:26.998Z,101506.69
2022-10-16T18:51:30.001Z,101518.16
2022-10-16T18:53:31.576Z,101513.75
2022-10-16T18:55:33.201Z,101519.13
2022-10-16T18:57:34.693Z,101520.06
2022-10-16T18:59:36.221Z,101516.16
2022-10-16T19:01:38.192Z,101514.84
2022-10-16T19:03:41.521Z,101518.91
2022-10-16T19:05:43.222Z,101504.56
2022-10-16T19:07:47.695Z,101507.06
2022-10-16T19:09:49.421Z,101506.72
2022-10-16T19:13:56.347Z,101504.91
2022-10-16T19:15:58.742Z,101505.25
2022-10-16T19:18:05.357Z,101504.22
2022-10-16T19:20:09.274Z,101493.69
2022-10-16T19:22:10.766Z,101504.56
2022-10-16T19:24:14.779Z,101509.94
2022-10-16T19:26:17.755Z,101515.47
2022-10-16T19:28:19.210Z,101517.34
2022-10-16T19:30:21.339Z,101515.63
2022-10-16T19:32:22.854Z,101504.06
2022-10-16T19:34:24.435Z,101502.16
2022-10-16T19:36:29.426Z,101517.19
2022-10-16T19:38:30.970Z,101513.63
2022-10-16T19:40:32.597Z,101517.69
2022-10-16T19:42:34.576Z,101522.63
2022-10-16T19:44:36.176Z,101517.88
2022-10-16T19:46:38.147Z,101518.50
2022-10-16T19:48:40.267Z,101525.31
2022-10-16T19:50:45.672Z,101541.72
2022-10-16T19:52:48.516Z,101543.28
2022-10-16T19:54:50.199Z,101536.09
2022-10-16T19:56:51.719Z,101534.13
2022-10-16T19:58:55.159Z,101544.34
2022-10-16T20:00:58.268Z,101536.53
2022-10-16T20:02:59.976Z,101544.84
2022-10-16T20:05:01.982Z,101548.81
2022-10-16T20:07:03.599Z,101552.16
2022-10-16T20:09:06.901Z,101562.69
2022-10-16T20:11:14.226Z,101556.22
2022-10-16T20:13:15.759Z,101562.94
2022-10-16T20:15:17.539Z,101567.44
2022-10-16T20:17:19.096Z,101567.59
2022-10-16T20:19:20.580Z,101569.84
2022-10-16T20:21:24.621Z,101583.31
2022-10-16T20:23:26.261Z,101589.78
2022-10-16T20:25:29.320Z,101601.25
2022-10-16T20:27:31.044Z,101595.03
2022-10-16T20:29:32.581Z,101604.00
2022-10-16T20:31:34.981Z,101597.47
2022-10-16T20:33:37.103Z,101598.34
2022-10-16T20:35:40.219Z,101599.97
2022-10-16T20:37:41.846Z,101603.69
2022-10-16T20:39:43.675Z,101607.56
2022-10-16T20:41:46.520Z,101595.19
2022-10-16T20:43:49.931Z,101600.72
2022-10-16T20:46:00.348Z,101601.75
2022-10-16T20:48:02.037Z,101598.22
2022-10-16T20:50:04.082Z,101601.22
2022-10-16T20:52:05.763Z,101604.50
2022-10-16T20:54:07.844Z,101593.63
2022-10-16T20:56:09.404Z,101595.38
2022-10-16T20:58:12.581Z,101588.19
2022-10-16T21:00:15.100Z,101585.69
2022-10-16T21:02:16.734Z,101595.19
2022-10-16T21:04:18.404Z,101603.06
2022-10-16T21:06:20.516Z,101599.44
2022-10-16T21:08:22.009Z,101600.38
2022-10-16T21:10:23.860Z,101605.75
2022-10-16T21:12:27.026Z,101604.97
2022-10-16T21:14:30.116Z,101609.38
2022-10-16T21:16:32.088Z,101604.09
2022-10-16T21:18:33.915Z,101603.06
2022-10-16T21:20:35.433Z,101587.78
2022-10-16T21:22:37.441Z,101611.63
2022-10-16T21:24:39.156Z,101610.59
2022-10-16T21:26:40.588Z,101614.22
2022-10-16T21:28:42.525Z,101615.97
2022-10-16T21:30:45.543Z,101608.53
2022-10-16T21:32:48.319Z,101612.34
2022-10-16T21:34:50.070Z,101632.34
2022-10-16T21:36:51.621Z,101635.81
2022-10-16T21:38:53.448Z,101635.97
2022-10-16T21:40:54.950Z,101628.59
2022-10-16T21:42:56.524Z,101629.47
2022-10-16T21:44:58.038Z,101640.66
2022-10-16T21:47:01.219Z,101640.84
2022-10-16T21:49:05.231Z,101644.63
2022-10-16T21:51:06.724Z,101648.09
2022-10-16T21:53:08.258Z,101646.19
2022-10-16T21:55:10.225Z,101653.44
2022-10-16T21:57:11.879Z,101649.19
2022-10-16T21:59:14.078Z,101641.09
2022-10-16T22:01:17.806Z,101648.25
2022-10-16T22:03:20.809Z,101653.75
2022-10-16T22:05:22.282Z,101646.44
2022-10-16T22:07:23.764Z,101648.25
2022-10-16T22:09:25.469Z,101635.97
2022-10-16T22:11:29.861Z,101630.44
2022-10-16T22:13:31.755Z,101632.63
2022-10-16T22:15:33.297Z,101642.06
2022-10-16T22:17:34.875Z,101644.47
2022-10-16T22:19:37.904Z,101653.91
2022-10-16T22:21:41.460Z,101651.81
2022-10-16T22:23:43.045Z,101660.88
2022-10-16T22:25:44.891Z,101659.13
2022-10-16T22:27:46.954Z,101641.25
2022-10-16T22:29:51.072Z,101643.38
2022-10-16T22:31:53.120Z,101645.44
2022-10-16T22:33:55.339Z,101636.72
2022-10-16T22:36:00.522Z,101643.31
2022-10-16T22:38:02.314Z,101646.47
2022-10-16T22:40:04.199Z,101649.03
2022-10-16T22:42:05.727Z,101654.94
2022-10-16T22:44:11.521Z,101659.59
2022-10-16T22:46:17.463Z,101655.81
2022-10-16T22:48:19.227Z,101655.72
2022-10-16T22:50:20.843Z,101653.91
2022-10-16T22:52:23.724Z,101650.72
2022-10-16T22:54:25.577Z,101655.91
2022-10-16T22:56:27.585Z,101658.91
2022-10-16T22:58:29.652Z,101653.72
2022-10-16T23:00:31.324Z,101651.53
2022-10-16T23:02:32.832Z,101655.31
2022-10-16T23:04:34.467Z,101658.94
2022-10-16T23:06:36.001Z,101657.22
2022-10-16T23:08:39.041Z,101659.13
2022-10-16T23:10:42.307Z,101654.69
2022-10-16T23:12:43.979Z,101654.19
2022-10-16T23:14:45.611Z,101653.56
2022-10-16T23:16:47.333Z,101657.34
2022-10-16T23:18:49.813Z,101661.44
2022-10-16T23:20:51.307Z,101661.75
2022-10-16T23:22:52.809Z,101663.81
2022-10-16T23:24:55.713Z,101660.34
2022-10-16T23:26:57.216Z,101656.03
2022-10-16T23:28:59.129Z,101651.13
2022-10-16T23:31:03.048Z,101664.84
2022-10-16T23:33:04.586Z,101653.09
2022-10-16T23:35:06.403Z,101649.97
2022-10-16T23:37:07.970Z,101657.44
2022-10-16T23:39:09.651Z,101661.38
2022-10-16T23:41:13.770Z,101657.75
2022-10-16T23:43:15.649Z,101650.50
2022-10-16T23:45:17.262Z,101656.06
2022-10-16T23:47:18.817Z,101663.00
2022-10-16T23:49:20.527Z,101673.72
2022-10-16T23:51:22.413Z,101673.97